sensor_id;sensor_type;location;lat;lon;timestamp;P1;durP1;ratioP1;P2;durP2;ratioP2
78324;SDS011;67584;51.400;6.692;2023-08-30T00:00:17;11.82;;;8.95;;
78324;SDS011;67584;51.400;6.692;2023-08-30T00:02:43;11.50;;;8.60;;
78324;SDS011;67584;51.400;6.692;2023-08-30T00:05:09;11.18;;;8.55;;
78324;SDS011;67584;51.400;6.692;2023-08-30T00:07:35;11.18;;;9.27;;
78324;SDS011;67584;51.400;6.692;2023-08-30T00:10:02;11.70;;;8.98;;
78324;SDS011;67584;51.400;6.692;2023-08-30T00:12:28;11.57;;;9.55;;
78324;SDS011;67584;51.400;6.692;2023-08-30T00:14:54;12.07;;;9.25;;
78324;SDS011;67584;51.400;6.692;2023-08-30T00:17:20;11.45;;;9.45;;
78324;SDS011;67584;51.400;6.692;2023-08-30T00:19:46;13.70;;;10.10;;
78324;SDS011;67584;51.400;6.692;2023-08-30T00:22:13;12.43;;;9.90;;
78324;SDS011;67584;51.400;6.692;2023-08-30T00:24:39;14.05;;;10.20;;
78324;SDS011;67584;51.400;6.692;2023-08-30T00:27:05;13.73;;;10.27;;
78324;SDS011;67584;51.400;6.692;2023-08-30T00:29:31;12.25;;;10.18;;
78324;SDS011;67584;51.400;6.692;2023-08-30T00:31:56;14.77;;;10.50;;
78324;SDS011;67584;51.400;6.692;2023-08-30T00:34:22;16.33;;;10.65;;
78324;SDS011;67584;51.400;6.692;2023-08-30T00:36:48;14.88;;;11.82;;
78324;SDS011;67584;51.400;6.692;2023-08-30T00:39:14;16.27;;;10.63;;
78324;SDS011;67584;51.400;6.692;2023-08-30T00:41:39;14.38;;;11.02;;
78324;SDS011;67584;51.400;6.692;2023-08-30T00:44:05;16.15;;;11.52;;
78324;SDS011;67584;51.400;6.692;2023-08-30T00:46:32;15.35;;;10.48;;
78324;SDS011;67584;51.400;6.692;2023-08-30T00:48:59;14.85;;;10.98;;
78324;SDS011;67584;51.400;6.692;2023-08-30T00:51:25;15.15;;;11.23;;
78324;SDS011;67584;51.400;6.692;2023-08-30T00:53:54;13.80;;;11.35;;
78324;SDS011;67584;51.400;6.692;2023-08-30T00:56:20;13.00;;;10.10;;
78324;SDS011;67584;51.400;6.692;2023-08-30T00:58:47;12.65;;;9.75;;
78324;SDS011;67584;51.400;6.692;2023-08-30T01:01:14;13.57;;;11.27;;
78324;SDS011;67584;51.400;6.692;2023-08-30T01:03:41;16.70;;;11.57;;
78324;SDS011;67584;51.400;6.692;2023-08-30T01:06:07;14.90;;;11.43;;
78324;SDS011;67584;51.400;6.692;2023-08-30T01:08:33;15.90;;;11.77;;
78324;SDS011;67584;51.400;6.692;2023-08-30T01:11:05;18.90;;;13.02;;
78324;SDS011;67584;51.400;6.692;2023-08-30T01:14:16;19.85;;;13.23;;
78324;SDS011;67584;51.400;6.692;2023-08-30T01:16:44;19.35;;;13.27;;
78324;SDS011;67584;51.400;6.692;2023-08-30T01:22:12;19.65;;;15.05;;
78324;SDS011;67584;51.400;6.692;2023-08-30T01:24:58;19.95;;;13.45;;
78324;SDS011;67584;51.400;6.692;2023-08-30T01:27:34;19.02;;;14.25;;
78324;SDS011;67584;51.400;6.692;2023-08-30T01:30:02;17.77;;;13.70;;
78324;SDS011;67584;51.400;6.692;2023-08-30T01:32:31;18.27;;;13.35;;
78324;SDS011;67584;51.400;6.692;2023-08-30T01:35:00;19.33;;;13.65;;
78324;SDS011;67584;51.400;6.692;2023-08-30T01:37:27;18.52;;;13.93;;
78324;SDS011;67584;51.400;6.692;2023-08-30T01:39:54;16.73;;;13.68;;
78324;SDS011;67584;51.400;6.692;2023-08-30T01:42:22;19.90;;;13.82;;
78324;SDS011;67584;51.400;6.692;2023-08-30T01:44:50;22.23;;;13.38;;
78324;SDS011;67584;51.400;6.692;2023-08-30T01:47:19;19.27;;;15.25;;
78324;SDS011;67584;51.400;6.692;2023-08-30T01:49:48;16.48;;;12.50;;
78324;SDS011;67584;51.400;6.692;2023-08-30T01:52:14;18.85;;;13.07;;
78324;SDS011;67584;51.400;6.692;2023-08-30T01:54:41;16.48;;;11.98;;
78324;SDS011;67584;51.400;6.692;2023-08-30T01:57:09;17.00;;;12.30;;
78324;SDS011;67584;51.400;6.692;2023-08-30T01:59:34;20.50;;;11.82;;
78324;SDS011;67584;51.400;6.692;2023-08-30T02:02:00;15.07;;;13.27;;
78324;SDS011;67584;51.400;6.692;2023-08-30T02:04:26;16.58;;;11.68;;
78324;SDS011;67584;51.400;6.692;2023-08-30T02:06:57;16.10;;;12.45;;
78324;SDS011;67584;51.400;6.692;2023-08-30T02:09:49;16.02;;;11.45;;
78324;SDS011;67584;51.400;6.692;2023-08-30T02:12:17;16.05;;;12.63;;
78324;SDS011;67584;51.400;6.692;2023-08-30T02:14:47;15.25;;;11.45;;
78324;SDS011;67584;51.400;6.692;2023-08-30T02:17:14;15.32;;;11.35;;
78324;SDS011;67584;51.400;6.692;2023-08-30T02:19:44;16.73;;;12.57;;
78324;SDS011;67584;51.400;6.692;2023-08-30T02:22:10;17.50;;;11.40;;
78324;SDS011;67584;51.400;6.692;2023-08-30T02:24:37;17.00;;;11.75;;
78324;SDS011;67584;51.400;6.692;2023-08-30T02:27:03;16.27;;;12.10;;
78324;SDS011;67584;51.400;6.692;2023-08-30T02:29:28;15.18;;;11.13;;
78324;SDS011;67584;51.400;6.692;2023-08-30T02:31:54;13.88;;;11.25;;
78324;SDS011;67584;51.400;6.692;2023-08-30T02:34:20;15.40;;;12.32;;
78324;SDS011;67584;51.400;6.692;2023-08-30T02:36:46;15.57;;;12.48;;
78324;SDS011;67584;51.400;6.692;2023-08-30T02:39:13;14.73;;;12.15;;
78324;SDS011;67584;51.400;6.692;2023-08-30T02:41:39;17.17;;;12.65;;
78324;SDS011;67584;51.400;6.692;2023-08-30T02:44:07;17.17;;;12.95;;
78324;SDS011;67584;51.400;6.692;2023-08-30T02:46:33;17.65;;;12.70;;
78324;SDS011;67584;51.400;6.692;2023-08-30T02:48:59;22.20;;;13.80;;
78324;SDS011;67584;51.400;6.692;2023-08-30T02:51:24;19.25;;;13.57;;
78324;SDS011;67584;51.400;6.692;2023-08-30T02:53:50;20.05;;;13.55;;
78324;SDS011;67584;51.400;6.692;2023-08-30T02:56:16;16.73;;;12.55;;
78324;SDS011;67584;51.400;6.692;2023-08-30T02:58:41;16.55;;;12.48;;
78324;SDS011;67584;51.400;6.692;2023-08-30T03:01:07;15.82;;;12.18;;
78324;SDS011;67584;51.400;6.692;2023-08-30T03:03:33;18.60;;;13.00;;
78324;SDS011;67584;51.400;6.692;2023-08-30T03:05:59;19.58;;;13.48;;
78324;SDS011;67584;51.400;6.692;2023-08-30T03:08:26;18.17;;;13.13;;
78324;SDS011;67584;51.400;6.692;2023-08-30T03:10:53;18.40;;;11.95;;
78324;SDS011;67584;51.400;6.692;2023-08-30T03:13:18;17.83;;;12.98;;
78324;SDS011;67584;51.400;6.692;2023-08-30T03:15:44;19.45;;;12.25;;
78324;SDS011;67584;51.400;6.692;2023-08-30T03:18:10;18.90;;;12.98;;
78324;SDS011;67584;51.400;6.692;2023-08-30T03:20:35;19.65;;;14.02;;
78324;SDS011;67584;51.400;6.692;2023-08-30T03:23:01;16.60;;;13.02;;
78324;SDS011;67584;51.400;6.692;2023-08-30T03:25:30;18.23;;;13.00;;
78324;SDS011;67584;51.400;6.692;2023-08-30T03:27:56;17.92;;;12.45;;
78324;SDS011;67584;51.400;6.692;2023-08-30T03:30:22;21.65;;;14.15;;
78324;SDS011;67584;51.400;6.692;2023-08-30T03:32:48;19.10;;;13.30;;
78324;SDS011;67584;51.400;6.692;2023-08-30T03:35:15;21.33;;;14.77;;
78324;SDS011;67584;51.400;6.692;2023-08-30T03:37:42;21.60;;;14.88;;
78324;SDS011;67584;51.400;6.692;2023-08-30T03:40:07;18.42;;;12.93;;
78324;SDS011;67584;51.400;6.692;2023-08-30T03:42:34;17.60;;;13.10;;
78324;SDS011;67584;51.400;6.692;2023-08-30T03:45:01;19.50;;;15.18;;
78324;SDS011;67584;51.400;6.692;2023-08-30T03:47:29;18.52;;;13.82;;
78324;SDS011;67584;51.400;6.692;2023-08-30T03:49:55;19.77;;;14.65;;
78324;SDS011;67584;51.400;6.692;2023-08-30T03:52:20;20.50;;;14.85;;
78324;SDS011;67584;51.400;6.692;2023-08-30T03:54:46;19.00;;;15.05;;
78324;SDS011;67584;51.400;6.692;2023-08-30T03:57:13;21.17;;;14.48;;
78324;SDS011;67584;51.400;6.692;2023-08-30T03:59:38;18.88;;;14.45;;
78324;SDS011;67584;51.400;6.692;2023-08-30T04:02:04;21.35;;;13.38;;
78324;SDS011;67584;51.400;6.692;2023-08-30T04:04:30;17.60;;;12.98;;
78324;SDS011;67584;51.400;6.692;2023-08-30T04:06:56;20.73;;;15.10;;
78324;SDS011;67584;51.400;6.692;2023-08-30T04:09:21;17.95;;;12.93;;
78324;SDS011;67584;51.400;6.692;2023-08-30T04:11:47;18.40;;;12.73;;
78324;SDS011;67584;51.400;6.692;2023-08-30T04:14:12;19.48;;;13.43;;
78324;SDS011;67584;51.400;6.692;2023-08-30T04:16:38;17.85;;;13.02;;
78324;SDS011;67584;51.400;6.692;2023-08-30T04:19:06;17.17;;;13.63;;
78324;SDS011;67584;51.400;6.692;2023-08-30T04:21:32;20.77;;;13.98;;
78324;SDS011;67584;51.400;6.692;2023-08-30T04:23:58;19.33;;;13.55;;
78324;SDS011;67584;51.400;6.692;2023-08-30T04:26:24;18.52;;;13.98;;
78324;SDS011;67584;51.400;6.692;2023-08-30T04:28:49;16.05;;;12.50;;
78324;SDS011;67584;51.400;6.692;2023-08-30T04:31:15;19.23;;;15.18;;
78324;SDS011;67584;51.400;6.692;2023-08-30T04:33:40;16.92;;;12.30;;
78324;SDS011;67584;51.400;6.692;2023-08-30T04:36:06;17.65;;;11.75;;
78324;SDS011;67584;51.400;6.692;2023-08-30T04:38:32;20.65;;;14.02;;
78324;SDS011;67584;51.400;6.692;2023-08-30T04:40:58;21.33;;;14.85;;
78324;SDS011;67584;51.400;6.692;2023-08-30T04:43:31;21.60;;;13.63;;
78324;SDS011;67584;51.400;6.692;2023-08-30T04:45:57;18.98;;;13.30;;
78324;SDS011;67584;51.400;6.692;2023-08-30T04:48:23;18.20;;;12.90;;
78324;SDS011;67584;51.400;6.692;2023-08-30T04:50:57;21.40;;;13.95;;
78324;SDS011;67584;51.400;6.692;2023-08-30T04:53:23;20.25;;;14.50;;
78324;SDS011;67584;51.400;6.692;2023-08-30T04:55:49;18.00;;;13.52;;
78324;SDS011;67584;51.400;6.692;2023-08-30T04:58:15;21.52;;;13.82;;
78324;SDS011;67584;51.400;6.692;2023-08-30T05:00:40;18.45;;;13.65;;
78324;SDS011;67584;51.400;6.692;2023-08-30T05:03:06;16.95;;;13.32;;
78324;SDS011;67584;51.400;6.692;2023-08-30T05:05:33;20.15;;;12.82;;
78324;SDS011;67584;51.400;6.692;2023-08-30T05:07:59;18.20;;;13.50;;
78324;SDS011;67584;51.400;6.692;2023-08-30T05:10:26;20.08;;;14.10;;
78324;SDS011;67584;51.400;6.692;2023-08-30T05:12:52;22.08;;;14.75;;
78324;SDS011;67584;51.400;6.692;2023-08-30T05:15:18;22.98;;;16.17;;
78324;SDS011;67584;51.400;6.692;2023-08-30T05:17:45;24.88;;;15.10;;
78324;SDS011;67584;51.400;6.692;2023-08-30T05:20:12;19.75;;;15.68;;
78324;SDS011;67584;51.400;6.692;2023-08-30T05:22:38;22.95;;;14.35;;
78324;SDS011;67584;51.400;6.692;2023-08-30T05:25:04;20.35;;;15.10;;
78324;SDS011;67584;51.400;6.692;2023-08-30T05:27:30;22.10;;;16.05;;
78324;SDS011;67584;51.400;6.692;2023-08-30T05:29:56;20.92;;;15.35;;
78324;SDS011;67584;51.400;6.692;2023-08-30T05:32:22;25.48;;;17.33;;
78324;SDS011;67584;51.400;6.692;2023-08-30T05:35:06;22.85;;;15.43;;
78324;SDS011;67584;51.400;6.692;2023-08-30T05:37:54;21.90;;;15.23;;
78324;SDS011;67584;51.400;6.692;2023-08-30T05:40:39;28.45;;;16.27;;
78324;SDS011;67584;51.400;6.692;2023-08-30T05:43:08;24.80;;;15.80;;
78324;SDS011;67584;51.400;6.692;2023-08-30T05:45:34;23.08;;;16.90;;
78324;SDS011;67584;51.400;6.692;2023-08-30T05:47:59;20.27;;;14.43;;
78324;SDS011;67584;51.400;6.692;2023-08-30T05:50:25;20.48;;;14.32;;
78324;SDS011;67584;51.400;6.692;2023-08-30T05:52:51;18.95;;;13.32;;
78324;SDS011;67584;51.400;6.692;2023-08-30T05:55:17;20.63;;;14.13;;
78324;SDS011;67584;51.400;6.692;2023-08-30T05:57:43;18.00;;;14.32;;
78324;SDS011;67584;51.400;6.692;2023-08-30T06:00:08;16.73;;;14.05;;
78324;SDS011;67584;51.400;6.692;2023-08-30T06:02:40;17.83;;;13.55;;
78324;SDS011;67584;51.400;6.692;2023-08-30T06:05:06;20.35;;;13.82;;
78324;SDS011;67584;51.400;6.692;2023-08-30T06:07:33;17.73;;;12.85;;
78324;SDS011;67584;51.400;6.692;2023-08-30T06:09:58;20.10;;;13.88;;
78324;SDS011;67584;51.400;6.692;2023-08-30T06:12:24;17.48;;;12.65;;
78324;SDS011;67584;51.400;6.692;2023-08-30T06:14:51;17.50;;;12.77;;
78324;SDS011;67584;51.400;6.692;2023-08-30T06:17:18;16.30;;;12.95;;
78324;SDS011;67584;51.400;6.692;2023-08-30T06:19:44;18.38;;;12.77;;
78324;SDS011;67584;51.400;6.692;2023-08-30T06:22:10;20.00;;;13.75;;
78324;SDS011;67584;51.400;6.692;2023-08-30T06:24:36;16.27;;;13.32;;
78324;SDS011;67584;51.400;6.692;2023-08-30T06:27:01;17.63;;;12.13;;
78324;SDS011;67584;51.400;6.692;2023-08-30T06:29:27;14.57;;;12.52;;
78324;SDS011;67584;51.400;6.692;2023-08-30T06:31:53;18.60;;;14.00;;
78324;SDS011;67584;51.400;6.692;2023-08-30T06:34:18;18.58;;;14.10;;
78324;SDS011;67584;51.400;6.692;2023-08-30T06:36:44;16.67;;;12.98;;
78324;SDS011;67584;51.400;6.692;2023-08-30T06:39:10;18.10;;;12.45;;
78324;SDS011;67584;51.400;6.692;2023-08-30T06:41:36;18.52;;;13.77;;
78324;SDS011;67584;51.400;6.692;2023-08-30T06:44:01;17.45;;;12.73;;
78324;SDS011;67584;51.400;6.692;2023-08-30T06:46:27;17.58;;;12.65;;
78324;SDS011;67584;51.400;6.692;2023-08-30T06:48:53;19.75;;;14.10;;
78324;SDS011;67584;51.400;6.692;2023-08-30T06:51:18;16.98;;;13.60;;
78324;SDS011;67584;51.400;6.692;2023-08-30T06:53:44;20.40;;;13.23;;
78324;SDS011;67584;51.400;6.692;2023-08-30T06:56:11;16.40;;;12.80;;
78324;SDS011;67584;51.400;6.692;2023-08-30T06:58:36;17.27;;;13.52;;
78324;SDS011;67584;51.400;6.692;2023-08-30T07:01:02;16.08;;;12.82;;
78324;SDS011;67584;51.400;6.692;2023-08-30T07:03:28;14.50;;;12.90;;
78324;SDS011;67584;51.400;6.692;2023-08-30T07:05:54;18.10;;;12.13;;
78324;SDS011;67584;51.400;6.692;2023-08-30T07:08:19;14.25;;;11.23;;
78324;SDS011;67584;51.400;6.692;2023-08-30T07:10:45;13.32;;;11.55;;
78324;SDS011;67584;51.400;6.692;2023-08-30T07:13:11;13.70;;;11.32;;
78324;SDS011;67584;51.400;6.692;2023-08-30T07:15:41;13.20;;;10.05;;
78324;SDS011;67584;51.400;6.692;2023-08-30T07:18:07;13.73;;;11.07;;
78324;SDS011;67584;51.400;6.692;2023-08-30T07:20:33;14.25;;;10.38;;
78324;SDS011;67584;51.400;6.692;2023-08-30T07:23:03;14.88;;;10.25;;
78324;SDS011;67584;51.400;6.692;2023-08-30T07:25:31;13.25;;;10.35;;
78324;SDS011;67584;51.400;6.692;2023-08-30T07:28:02;12.45;;;10.50;;
78324;SDS011;67584;51.400;6.692;2023-08-30T07:30:28;11.98;;;9.80;;
78324;SDS011;67584;51.400;6.692;2023-08-30T07:32:54;13.07;;;9.43;;
78324;SDS011;67584;51.400;6.692;2023-08-30T07:35:20;12.07;;;10.70;;
78324;SDS011;67584;51.400;6.692;2023-08-30T07:37:46;13.63;;;8.85;;
78324;SDS011;67584;51.400;6.692;2023-08-30T07:40:11;14.75;;;10.15;;
78324;SDS011;67584;51.400;6.692;2023-08-30T07:42:37;12.20;;;8.82;;
78324;SDS011;67584;51.400;6.692;2023-08-30T07:45:03;11.57;;;8.55;;
78324;SDS011;67584;51.400;6.692;2023-08-30T07:47:29;10.75;;;7.93;;
78324;SDS011;67584;51.400;6.692;2023-08-30T07:49:55;10.70;;;6.75;;
78324;SDS011;67584;51.400;6.692;2023-08-30T07:52:20;8.38;;;6.28;;
78324;SDS011;67584;51.400;6.692;2023-08-30T07:54:46;8.25;;;5.97;;
78324;SDS011;67584;51.400;6.692;2023-08-30T07:57:12;8.48;;;6.20;;
78324;SDS011;67584;51.400;6.692;2023-08-30T07:59:38;8.48;;;5.40;;
78324;SDS011;67584;51.400;6.692;2023-08-30T08:02:04;7.10;;;5.28;;
78324;SDS011;67584;51.400;6.692;2023-08-30T08:04:33;7.35;;;5.47;;
78324;SDS011;67584;51.400;6.692;2023-08-30T08:06:59;9.00;;;4.82;;
78324;SDS011;67584;51.400;6.692;2023-08-30T08:09:25;18.02;;;5.07;;
78324;SDS011;67584;51.400;6.692;2023-08-30T08:11:51;10.10;;;4.97;;
78324;SDS011;67584;51.400;6.692;2023-08-30T08:14:16;8.77;;;5.07;;
78324;SDS011;67584;51.400;6.692;2023-08-30T08:16:42;7.85;;;5.05;;
78324;SDS011;67584;51.400;6.692;2023-08-30T08:19:08;6.80;;;5.07;;
78324;SDS011;67584;51.400;6.692;2023-08-30T08:21:34;6.53;;;5.07;;
78324;SDS011;67584;51.400;6.692;2023-08-30T08:24:00;6.50;;;4.57;;
78324;SDS011;67584;51.400;6.692;2023-08-30T08:26:26;7.78;;;5.05;;
78324;SDS011;67584;51.400;6.692;2023-08-30T08:28:53;6.18;;;4.85;;
78324;SDS011;67584;51.400;6.692;2023-08-30T08:31:19;6.20;;;5.20;;
78324;SDS011;67584;51.400;6.692;2023-08-30T08:33:45;6.32;;;5.15;;
78324;SDS011;67584;51.400;6.692;2023-08-30T08:36:11;6.43;;;4.90;;
78324;SDS011;67584;51.400;6.692;2023-08-30T08:38:37;6.65;;;4.88;;
78324;SDS011;67584;51.400;6.692;2023-08-30T08:41:07;9.82;;;5.43;;
78324;SDS011;67584;51.400;6.692;2023-08-30T08:43:37;7.38;;;4.72;;
78324;SDS011;67584;51.400;6.692;2023-08-30T08:46:05;5.53;;;4.53;;
78324;SDS011;67584;51.400;6.692;2023-08-30T08:48:33;6.63;;;4.93;;
78324;SDS011;67584;51.400;6.692;2023-08-30T08:51:01;5.85;;;4.72;;
78324;SDS011;67584;51.400;6.692;2023-08-30T08:53:27;5.97;;;4.15;;
78324;SDS011;67584;51.400;6.692;2023-08-30T08:55:53;7.63;;;5.22;;
78324;SDS011;67584;51.400;6.692;2023-08-30T08:58:23;5.47;;;4.30;;
78324;SDS011;67584;51.400;6.692;2023-08-30T09:00:49;6.05;;;4.55;;
78324;SDS011;67584;51.400;6.692;2023-08-30T09:03:15;6.72;;;4.30;;
78324;SDS011;67584;51.400;6.692;2023-08-30T09:05:42;7.20;;;4.25;;
78324;SDS011;67584;51.400;6.692;2023-08-30T09:08:09;5.22;;;4.50;;
78324;SDS011;67584;51.400;6.692;2023-08-30T09:10:36;5.65;;;4.32;;
78324;SDS011;67584;51.400;6.692;2023-08-30T09:13:02;4.72;;;3.55;;
78324;SDS011;67584;51.400;6.692;2023-08-30T09:15:32;6.25;;;4.28;;
78324;SDS011;67584;51.400;6.692;2023-08-30T09:17:58;6.40;;;4.25;;
78324;SDS011;67584;51.400;6.692;2023-08-30T09:20:23;7.65;;;5.25;;
78324;SDS011;67584;51.400;6.692;2023-08-30T09:22:49;7.90;;;4.32;;
78324;SDS011;67584;51.400;6.692;2023-08-30T09:25:22;8.00;;;6.07;;
78324;SDS011;67584;51.400;6.692;2023-08-30T09:27:58;8.77;;;4.78;;
78324;SDS011;67584;51.400;6.692;2023-08-30T09:30:25;7.03;;;5.70;;
78324;SDS011;67584;51.400;6.692;2023-08-30T09:32:51;8.02;;;6.05;;
78324;SDS011;67584;51.400;6.692;2023-08-30T09:35:17;9.07;;;5.85;;
78324;SDS011;67584;51.400;6.692;2023-08-30T09:37:46;8.05;;;6.78;;
78324;SDS011;67584;51.400;6.692;2023-08-30T09:40:11;10.13;;;7.15;;
78324;SDS011;67584;51.400;6.692;2023-08-30T09:42:41;10.85;;;7.18;;
78324;SDS011;67584;51.400;6.692;2023-08-30T09:45:19;8.98;;;6.82;;
78324;SDS011;67584;51.400;6.692;2023-08-30T09:47:47;9.85;;;7.72;;
78324;SDS011;67584;51.400;6.692;2023-08-30T09:50:15;10.95;;;7.20;;
78324;SDS011;67584;51.400;6.692;2023-08-30T09:52:43;9.75;;;7.30;;
78324;SDS011;67584;51.400;6.692;2023-08-30T09:55:10;10.45;;;7.03;;
78324;SDS011;67584;51.400;6.692;2023-08-30T09:57:35;10.73;;;7.70;;
78324;SDS011;67584;51.400;6.692;2023-08-30T10:00:02;9.40;;;7.75;;
78324;SDS011;67584;51.400;6.692;2023-08-30T10:02:30;10.82;;;7.72;;
78324;SDS011;67584;51.400;6.692;2023-08-30T10:04:58;9.50;;;7.25;;
78324;SDS011;67584;51.400;6.692;2023-08-30T10:07:24;12.95;;;7.53;;
78324;SDS011;67584;51.400;6.692;2023-08-30T10:09:51;10.10;;;6.72;;
78324;SDS011;67584;51.400;6.692;2023-08-30T10:12:21;8.45;;;7.32;;
78324;SDS011;67584;51.400;6.692;2023-08-30T10:14:47;9.32;;;7.00;;
78324;SDS011;67584;51.400;6.692;2023-08-30T10:17:13;10.05;;;6.43;;
78324;SDS011;67584;51.400;6.692;2023-08-30T10:19:41;8.88;;;6.70;;
78324;SDS011;67584;51.400;6.692;2023-08-30T10:22:10;10.45;;;7.32;;
78324;SDS011;67584;51.400;6.692;2023-08-30T10:24:44;8.50;;;6.70;;
78324;SDS011;67584;51.400;6.692;2023-08-30T10:27:17;11.35;;;7.88;;
78324;SDS011;67584;51.400;6.692;2023-08-30T10:29:45;9.90;;;7.70;;
78324;SDS011;67584;51.400;6.692;2023-08-30T10:32:12;9.23;;;8.20;;
78324;SDS011;67584;51.400;6.692;2023-08-30T10:34:38;7.15;;;6.45;;
78324;SDS011;67584;51.400;6.692;2023-08-30T10:37:07;10.30;;;6.65;;
78324;SDS011;67584;51.400;6.692;2023-08-30T10:42:07;9.48;;;7.57;;
78324;SDS011;67584;51.400;6.692;2023-08-30T10:45:14;10.45;;;7.57;;
78324;SDS011;67584;51.400;6.692;2023-08-30T10:47:36;12.25;;;8.63;;
78324;SDS011;67584;51.400;6.692;2023-08-30T10:50:06;10.38;;;8.07;;
78324;SDS011;67584;51.400;6.692;2023-08-30T10:52:33;8.25;;;7.32;;
78324;SDS011;67584;51.400;6.692;2023-08-30T10:57:43;7.00;;;5.63;;
78324;SDS011;67584;51.400;6.692;2023-08-30T11:00:19;9.07;;;6.32;;
78324;SDS011;67584;51.400;6.692;2023-08-30T11:02:50;6.45;;;5.57;;
78324;SDS011;67584;51.400;6.692;2023-08-30T11:05:17;7.50;;;6.47;;
78324;SDS011;67584;51.400;6.692;2023-08-30T11:07:44;10.18;;;6.88;;
78324;SDS011;67584;51.400;6.692;2023-08-30T11:10:11;9.27;;;7.75;;
78324;SDS011;67584;51.400;6.692;2023-08-30T11:12:40;4.97;;;4.47;;
78324;SDS011;67584;51.400;6.692;2023-08-30T11:17:32;7.90;;;4.85;;
78324;SDS011;67584;51.400;6.692;2023-08-30T11:20:04;9.85;;;6.80;;
78324;SDS011;67584;51.400;6.692;2023-08-30T11:22:38;8.57;;;6.78;;
78324;SDS011;67584;51.400;6.692;2023-08-30T11:25:07;9.45;;;7.05;;
78324;SDS011;67584;51.400;6.692;2023-08-30T11:27:34;11.55;;;8.45;;
78324;SDS011;67584;51.400;6.692;2023-08-30T11:30:00;10.48;;;8.40;;
78324;SDS011;67584;51.400;6.692;2023-08-30T11:32:38;8.50;;;6.20;;
78324;SDS011;67584;51.400;6.692;2023-08-30T11:35:05;7.97;;;6.00;;
78324;SDS011;67584;51.400;6.692;2023-08-30T11:37:32;8.02;;;7.05;;
78324;SDS011;67584;51.400;6.692;2023-08-30T11:39:58;9.40;;;6.72;;
78324;SDS011;67584;51.400;6.692;2023-08-30T11:42:25;9.50;;;6.93;;
78324;SDS011;67584;51.400;6.692;2023-08-30T11:44:51;6.03;;;4.35;;
78324;SDS011;67584;51.400;6.692;2023-08-30T11:47:24;9.05;;;6.72;;
78324;SDS011;67584;51.400;6.692;2023-08-30T11:49:52;7.10;;;5.40;;
78324;SDS011;67584;51.400;6.692;2023-08-30T11:52:18;8.70;;;6.50;;
78324;SDS011;67584;51.400;6.692;2023-08-30T11:54:48;7.22;;;4.93;;
78324;SDS011;67584;51.400;6.692;2023-08-30T11:57:14;4.63;;;3.22;;
78324;SDS011;67584;51.400;6.692;2023-08-30T11:59:40;5.22;;;4.18;;
78324;SDS011;67584;51.400;6.692;2023-08-30T12:02:07;6.22;;;4.95;;
78324;SDS011;67584;51.400;6.692;2023-08-30T12:04:36;7.13;;;5.30;;
78324;SDS011;67584;51.400;6.692;2023-08-30T12:07:08;8.50;;;6.75;;
78324;SDS011;67584;51.400;6.692;2023-08-30T12:09:34;8.18;;;7.38;;
78324;SDS011;67584;51.400;6.692;2023-08-30T12:12:09;10.32;;;9.00;;
78324;SDS011;67584;51.400;6.692;2023-08-30T12:14:36;5.85;;;4.05;;
78324;SDS011;67584;51.400;6.692;2023-08-30T12:17:01;7.25;;;5.28;;
78324;SDS011;67584;51.400;6.692;2023-08-30T12:19:28;6.10;;;5.50;;
78324;SDS011;67584;51.400;6.692;2023-08-30T12:21:54;7.60;;;5.93;;
78324;SDS011;67584;51.400;6.692;2023-08-30T12:24:20;6.85;;;5.75;;
78324;SDS011;67584;51.400;6.692;2023-08-30T12:26:46;7.75;;;5.82;;
78324;SDS011;67584;51.400;6.692;2023-08-30T12:29:11;10.55;;;7.45;;
78324;SDS011;67584;51.400;6.692;2023-08-30T12:31:37;7.63;;;5.68;;
78324;SDS011;67584;51.400;6.692;2023-08-30T12:34:03;10.15;;;6.68;;
78324;SDS011;67584;51.400;6.692;2023-08-30T12:36:29;8.60;;;6.45;;
78324;SDS011;67584;51.400;6.692;2023-08-30T12:38:54;9.95;;;7.00;;
78324;SDS011;67584;51.400;6.692;2023-08-30T12:41:20;6.30;;;5.40;;
78324;SDS011;67584;51.400;6.692;2023-08-30T12:43:48;5.40;;;4.82;;
78324;SDS011;67584;51.400;6.692;2023-08-30T12:46:14;4.63;;;4.18;;
78324;SDS011;67584;51.400;6.692;2023-08-30T12:48:40;5.75;;;4.40;;
78324;SDS011;67584;51.400;6.692;2023-08-30T12:51:06;6.60;;;4.43;;
78324;SDS011;67584;51.400;6.692;2023-08-30T12:53:32;6.53;;;4.28;;
78324;SDS011;67584;51.400;6.692;2023-08-30T12:55:57;4.60;;;3.75;;
78324;SDS011;67584;51.400;6.692;2023-08-30T12:58:23;5.07;;;4.45;;
78324;SDS011;67584;51.400;6.692;2023-08-30T13:00:49;6.68;;;4.70;;
78324;SDS011;67584;51.400;6.692;2023-08-30T13:03:15;6.05;;;4.78;;
78324;SDS011;67584;51.400;6.692;2023-08-30T13:05:40;6.03;;;4.85;;
78324;SDS011;67584;51.400;6.692;2023-08-30T13:08:06;5.05;;;4.47;;
78324;SDS011;67584;51.400;6.692;2023-08-30T13:10:32;5.80;;;4.88;;
78324;SDS011;67584;51.400;6.692;2023-08-30T13:12:58;4.30;;;3.65;;
78324;SDS011;67584;51.400;6.692;2023-08-30T13:15:24;6.13;;;5.15;;
78324;SDS011;67584;51.400;6.692;2023-08-30T13:17:50;5.65;;;4.53;;
78324;SDS011;67584;51.400;6.692;2023-08-30T13:20:16;4.80;;;3.65;;
78324;SDS011;67584;51.400;6.692;2023-08-30T13:22:41;4.47;;;3.38;;
78324;SDS011;67584;51.400;6.692;2023-08-30T13:25:07;4.57;;;3.90;;
78324;SDS011;67584;51.400;6.692;2023-08-30T13:27:33;6.15;;;4.30;;
78324;SDS011;67584;51.400;6.692;2023-08-30T13:29:59;4.20;;;3.58;;
78324;SDS011;67584;51.400;6.692;2023-08-30T13:32:25;5.80;;;3.95;;
78324;SDS011;67584;51.400;6.692;2023-08-30T13:34:54;5.30;;;3.83;;
78324;SDS011;67584;51.400;6.692;2023-08-30T13:37:20;4.07;;;3.50;;
78324;SDS011;67584;51.400;6.692;2023-08-30T13:39:47;6.13;;;3.63;;
78324;SDS011;67584;51.400;6.692;2023-08-30T13:42:12;4.22;;;3.33;;
78324;SDS011;67584;51.400;6.692;2023-08-30T13:44:38;6.40;;;4.10;;
78324;SDS011;67584;51.400;6.692;2023-08-30T13:47:04;5.10;;;3.83;;
78324;SDS011;67584;51.400;6.692;2023-08-30T13:49:30;5.15;;;4.18;;
78324;SDS011;67584;51.400;6.692;2023-08-30T13:51:56;5.93;;;4.07;;
78324;SDS011;67584;51.400;6.692;2023-08-30T13:54:22;4.30;;;3.05;;
78324;SDS011;67584;51.400;6.692;2023-08-30T13:56:48;6.40;;;4.05;;
78324;SDS011;67584;51.400;6.692;2023-08-30T13:59:14;4.60;;;3.67;;
78324;SDS011;67584;51.400;6.692;2023-08-30T14:01:40;4.43;;;3.83;;
78324;SDS011;67584;51.400;6.692;2023-08-30T14:04:06;4.47;;;3.40;;
78324;SDS011;67584;51.400;6.692;2023-08-30T14:06:31;4.93;;;3.85;;
78324;SDS011;67584;51.400;6.692;2023-08-30T14:08:57;3.92;;;3.08;;
78324;SDS011;67584;51.400;6.692;2023-08-30T14:11:23;5.63;;;3.92;;
78324;SDS011;67584;51.400;6.692;2023-08-30T14:13:49;4.45;;;3.72;;
78324;SDS011;67584;51.400;6.692;2023-08-30T14:16:14;6.35;;;4.10;;
78324;SDS011;67584;51.400;6.692;2023-08-30T14:18:40;3.88;;;3.47;;
78324;SDS011;67584;51.400;6.692;2023-08-30T14:21:07;5.63;;;3.97;;
78324;SDS011;67584;51.400;6.692;2023-08-30T14:23:33;5.47;;;4.10;;
78324;SDS011;67584;51.400;6.692;2023-08-30T14:26:04;5.90;;;3.72;;
78324;SDS011;67584;51.400;6.692;2023-08-30T14:28:38;4.85;;;4.35;;
78324;SDS011;67584;51.400;6.692;2023-08-30T14:31:08;6.18;;;4.03;;
78324;SDS011;67584;51.400;6.692;2023-08-30T14:33:35;7.13;;;4.15;;
78324;SDS011;67584;51.400;6.692;2023-08-30T14:36:02;5.07;;;4.05;;
78324;SDS011;67584;51.400;6.692;2023-08-30T14:38:28;5.25;;;4.30;;
78324;SDS011;67584;51.400;6.692;2023-08-30T14:40:58;6.38;;;4.00;;
78324;SDS011;67584;51.400;6.692;2023-08-30T14:43:25;4.68;;;3.75;;